createdAt,value
2017-12-03T00:01:28.118Z,-1.30
2017-12-03T00:03:54.653Z,-1.30
2017-12-03T00:06:21.344Z,-1.30
2017-12-03T00:08:47.899Z,-1.30
2017-12-03T00:11:14.444Z,-1.30
2017-12-03T00:13:41.038Z,-1.30
2017-12-03T00:16:07.618Z,-1.30
2017-12-03T00:18:34.162Z,-1.30
2017-12-03T00:21:00.806Z,-1.30
2017-12-03T00:23:27.373Z,-1.30
2017-12-03T00:25:54.254Z,-1.30
2017-12-03T00:28:20.878Z,-1.30
2017-12-03T00:30:47.443Z,-1.30
2017-12-03T00:33:13.982Z,-1.30
2017-12-03T00:35:40.641Z,-1.30
2017-12-03T00:38:07.205Z,-1.30
2017-12-03T00:40:34.130Z,-1.40
2017-12-03T00:43:00.717Z,-1.40
2017-12-03T00:45:27.269Z,-1.40
2017-12-03T00:50:48.094Z,-1.50
2017-12-03T00:53:14.692Z,-1.40
2017-12-03T00:55:41.233Z,-1.40
2017-12-03T00:58:07.782Z,-1.40
2017-12-03T01:00:34.409Z,-1.40
2017-12-03T01:03:01.372Z,-1.40
2017-12-03T01:05:28.285Z,-1.40
2017-12-03T01:07:54.881Z,-1.30
2017-12-03T01:10:21.413Z,-1.40
2017-12-03T01:12:48.343Z,-1.40
2017-12-03T01:15:15.014Z,-1.30
2017-12-03T01:17:41.982Z,-1.30
2017-12-03T01:20:08.581Z,-1.30
2017-12-03T01:22:35.231Z,-1.30
2017-12-03T01:25:01.824Z,-1.30
2017-12-03T01:27:28.762Z,-1.30
2017-12-03T01:29:55.398Z,-1.30
2017-12-03T01:32:21.946Z,-1.30
2017-12-03T01:34:48.478Z,-1.30
2017-12-03T01:37:15.073Z,-1.30
2017-12-03T01:39:41.989Z,-1.40
2017-12-03T01:42:08.545Z,-1.40
2017-12-03T01:44:35.180Z,-1.30
2017-12-03T01:47:01.724Z,-1.30
2017-12-03T01:49:28.290Z,-1.30
2017-12-03T01:51:54.925Z,-1.40
2017-12-03T01:54:21.476Z,-1.30
2017-12-03T01:56:48.048Z,-1.30
2017-12-03T01:59:15.057Z,-1.40
2017-12-03T02:01:41.634Z,-1.40
2017-12-03T02:04:08.171Z,-1.40
2017-12-03T02:06:34.877Z,-1.40
2017-12-03T02:09:01.505Z,-1.40
2017-12-03T02:11:28.173Z,-1.40
2017-12-03T02:13:54.808Z,-1.40
2017-12-03T02:16:21.742Z,-1.40
2017-12-03T02:18:48.318Z,-1.40
2017-12-03T02:21:15.326Z,-1.40
2017-12-03T02:23:41.867Z,-1.40
2017-12-03T02:26:08.418Z,-1.50
2017-12-03T02:28:35.044Z,-1.50
2017-12-03T02:31:01.628Z,-1.50
2017-12-03T02:33:28.189Z,-1.50
2017-12-03T02:35:54.811Z,-1.50
2017-12-03T02:38:21.373Z,-1.50
2017-12-03T02:40:47.937Z,-1.50
2017-12-03T02:43:14.644Z,-1.50
2017-12-03T02:45:41.210Z,-1.50
2017-12-03T02:48:07.763Z,-1.50
2017-12-03T02:50:34.400Z,-1.50
2017-12-03T02:53:01.018Z,-1.50
2017-12-03T02:55:27.580Z,-1.40
2017-12-03T02:57:54.349Z,-1.50
2017-12-03T03:00:20.966Z,-1.50
2017-12-03T03:02:47.575Z,-1.50
2017-12-03T03:05:14.634Z,-1.50
2017-12-03T03:07:41.634Z,-1.60
2017-12-03T03:10:08.254Z,-1.60
2017-12-03T03:12:34.955Z,-1.50
2017-12-03T03:15:01.542Z,-1.60
2017-12-03T03:17:28.106Z,-1.60
2017-12-03T03:19:54.800Z,-1.50
2017-12-03T03:22:21.370Z,-1.50
2017-12-03T03:24:47.962Z,-1.50
2017-12-03T03:27:14.727Z,-1.50
2017-12-03T03:29:41.323Z,-1.60
2017-12-03T03:32:07.885Z,-1.60
2017-12-03T03:34:34.897Z,-1.60
2017-12-03T03:37:01.523Z,-1.60
2017-12-03T03:39:28.138Z,-1.60
2017-12-03T03:41:55.138Z,-1.70
2017-12-03T03:44:21.689Z,-1.70
2017-12-03T03:46:48.282Z,-1.70
2017-12-03T03:49:14.934Z,-1.70
2017-12-03T03:54:14.680Z,-1.70
2017-12-03T03:56:41.747Z,-1.70
2017-12-03T03:59:08.306Z,-1.70
2017-12-03T04:01:34.995Z,-1.70
2017-12-03T04:04:01.592Z,-1.70
2017-12-03T04:06:28.161Z,-1.70
2017-12-03T04:08:55.154Z,-1.70
2017-12-03T04:11:21.749Z,-1.70
2017-12-03T04:13:48.696Z,-1.70
2017-12-03T04:16:15.730Z,-1.70
2017-12-03T04:18:42.266Z,-1.70
2017-12-03T04:21:08.890Z,-1.80
2017-12-03T04:23:35.510Z,-1.70
2017-12-03T04:26:02.479Z,-1.70
2017-12-03T04:28:29.414Z,-1.70
2017-12-03T04:30:56.137Z,-1.70
2017-12-03T04:33:22.713Z,-1.70
2017-12-03T04:35:49.322Z,-1.60
2017-12-03T04:38:15.982Z,-1.60
2017-12-03T04:40:42.623Z,-1.70
2017-12-03T04:43:09.241Z,-1.70
2017-12-03T04:45:35.893Z,-1.70
2017-12-03T04:48:02.510Z,-1.70
2017-12-03T04:50:29.132Z,-1.70
2017-12-03T04:55:29.005Z,-1.70
2017-12-03T04:57:55.616Z,-1.70
2017-12-03T05:00:22.289Z,-1.70
2017-12-03T05:02:48.981Z,-1.70
2017-12-03T05:05:16.158Z,-1.70
2017-12-03T05:07:42.772Z,-1.70
2017-12-03T05:10:09.378Z,-1.60
2017-12-03T05:12:36.130Z,-1.70
2017-12-03T05:15:02.774Z,-1.60
2017-12-03T05:17:29.381Z,-1.60
2017-12-03T05:19:56.413Z,-1.60
2017-12-03T05:22:23.037Z,-1.60
2017-12-03T05:24:49.640Z,-1.60
2017-12-03T05:27:16.830Z,-1.60
2017-12-03T05:29:43.450Z,-1.60
2017-12-03T05:32:10.523Z,-1.60
2017-12-03T05:34:37.201Z,-1.60
2017-12-03T05:37:03.821Z,-1.60
2017-12-03T05:39:30.438Z,-1.60
2017-12-03T05:41:57.089Z,-1.70
2017-12-03T05:44:23.706Z,-1.70
2017-12-03T05:46:50.325Z,-1.70
2017-12-03T05:49:16.989Z,-1.60
2017-12-03T05:51:43.593Z,-1.60
2017-12-03T05:54:10.577Z,-1.60
2017-12-03T05:56:37.277Z,-1.60
2017-12-03T05:59:03.890Z,-1.60
2017-12-03T06:01:30.509Z,-1.60
2017-12-03T06:03:57.173Z,-1.60
2017-12-03T06:06:23.813Z,-1.50
2017-12-03T06:08:50.440Z,-1.40
2017-12-03T06:11:17.110Z,-1.50
2017-12-03T06:13:44.098Z,-1.50
2017-12-03T06:16:10.710Z,-1.50
2017-12-03T06:18:37.741Z,-1.50
2017-12-03T06:21:04.334Z,-1.50
2017-12-03T06:23:30.955Z,-1.60
2017-12-03T06:25:58.030Z,-1.60
2017-12-03T06:28:25.014Z,-1.60
2017-12-03T06:30:51.618Z,-1.60
2017-12-03T06:33:18.270Z,-1.60
2017-12-03T06:35:45.237Z,-1.60
2017-12-03T06:38:12.425Z,-1.60
2017-12-03T06:40:39.138Z,-1.60
2017-12-03T06:43:06.105Z,-1.50
2017-12-03T06:45:33.359Z,-1.50
2017-12-03T06:48:00.469Z,-1.40
2017-12-03T06:50:27.089Z,-1.40
2017-12-03T06:52:53.689Z,-1.40
2017-12-03T06:55:20.477Z,-1.40
2017-12-03T06:57:47.481Z,-1.40
2017-12-03T07:00:14.142Z,-1.40
2017-12-03T07:02:40.770Z,-1.50
2017-12-03T07:05:07.373Z,-1.40
2017-12-03T07:07:34.381Z,-1.40
2017-12-03T07:10:01.058Z,-1.50
2017-12-03T07:12:27.978Z,-1.50
2017-12-03T07:14:54.590Z,-1.50
2017-12-03T07:17:21.666Z,-1.60
2017-12-03T07:19:48.296Z,-1.60
2017-12-03T07:22:15.302Z,-1.60
2017-12-03T07:24:42.420Z,-1.60
2017-12-03T07:27:09.240Z,-1.60
2017-12-03T07:29:35.906Z,-1.50
2017-12-03T07:32:02.606Z,-1.50
2017-12-03T07:34:29.285Z,-1.50
2017-12-03T07:36:55.913Z,-1.50
2017-12-03T07:39:22.621Z,-1.50
2017-12-03T07:41:49.296Z,-1.50
2017-12-03T07:44:15.972Z,-1.40
2017-12-03T07:46:42.694Z,-1.40
2017-12-03T07:49:09.398Z,-1.40
2017-12-03T07:51:36.057Z,-1.30
2017-12-03T07:54:03.178Z,-1.30
2017-12-03T07:56:29.919Z,-1.30
2017-12-03T07:58:56.682Z,-1.20
2017-12-03T08:01:23.343Z,-1.20
2017-12-03T08:03:49.950Z,-1.10
2017-12-03T08:06:16.566Z,-1.10
2017-12-03T08:08:43.294Z,-1.10
2017-12-03T08:11:09.922Z,-1.00
2017-12-03T08:13:36.518Z,-1.00
2017-12-03T08:16:03.316Z,-1.00
2017-12-03T08:18:29.930Z,-0.90
2017-12-03T08:20:56.543Z,-0.80
2017-12-03T08:23:23.215Z,-0.80
2017-12-03T08:25:49.833Z,-0.70
2017-12-03T08:28:16.455Z,-0.70
2017-12-03T08:30:43.194Z,-0.80
2017-12-03T08:33:09.782Z,-0.80
2017-12-03T08:35:36.415Z,-0.60
2017-12-03T08:38:03.173Z,-0.70
2017-12-03T08:40:29.805Z,-0.80
2017-12-03T08:42:56.398Z,-0.70
2017-12-03T08:45:23.093Z,-0.60
2017-12-03T08:47:49.688Z,-0.50
2017-12-03T08:50:16.286Z,-0.40
2017-12-03T08:52:43.330Z,-0.40
2017-12-03T08:55:10.381Z,-0.40
2017-12-03T08:57:36.989Z,-0.40
2017-12-03T09:00:03.679Z,-0.30
2017-12-03T09:02:30.686Z,-0.20
2017-12-03T09:04:57.302Z,-0.20
2017-12-03T09:07:24.314Z,-0.10
2017-12-03T09:09:51.061Z,-0.10
2017-12-03T09:12:17.711Z,-0.10
2017-12-03T09:14:44.399Z,0.00
2017-12-03T09:17:11.022Z,-0.20
2017-12-03T09:19:37.629Z,-0.30
2017-12-03T09:22:04.302Z,-0.20
2017-12-03T09:24:30.914Z,-0.10
2017-12-03T09:26:57.594Z,0.00
2017-12-03T09:29:24.337Z,-0.10
2017-12-03T09:31:50.986Z,-0.10
2017-12-03T09:34:17.634Z,0.00
2017-12-03T09:36:44.334Z,0.00
2017-12-03T09:39:10.942Z,-0.10
2017-12-03T09:41:37.553Z,0.00
2017-12-03T09:44:04.682Z,0.00
2017-12-03T09:46:31.289Z,0.00
2017-12-03T09:48:57.881Z,0.00
2017-12-03T09:54:20.546Z,0.10
2017-12-03T09:56:47.331Z,0.10
2017-12-03T09:59:13.965Z,0.10
2017-12-03T10:01:40.594Z,0.20
2017-12-03T10:04:07.299Z,0.20
2017-12-03T10:06:34.298Z,0.20
2017-12-03T10:09:00.922Z,0.20
2017-12-03T10:11:27.734Z,0.20
2017-12-03T10:13:54.351Z,0.20
2017-12-03T10:16:21.027Z,0.30
2017-12-03T10:18:47.699Z,0.40
2017-12-03T10:21:14.685Z,0.40
2017-12-03T10:23:41.291Z,0.50
2017-12-03T10:26:08.010Z,0.50
2017-12-03T10:28:34.636Z,0.60
2017-12-03T10:31:01.303Z,0.60
2017-12-03T10:33:28.502Z,0.60
2017-12-03T10:35:55.114Z,0.60
2017-12-03T10:38:21.761Z,0.60
2017-12-03T10:40:48.377Z,0.40
2017-12-03T10:43:15.308Z,0.30
2017-12-03T10:45:42.302Z,0.40
2017-12-03T10:48:08.930Z,0.40
2017-12-03T10:50:35.545Z,0.30
2017-12-03T10:53:02.129Z,0.30
2017-12-03T10:55:29.249Z,0.20
2017-12-03T10:57:55.810Z,0.20
2017-12-03T11:00:25.350Z,0.30
2017-12-03T11:02:52.558Z,0.30
2017-12-03T11:05:19.278Z,0.30
2017-12-03T11:07:46.410Z,0.20
2017-12-03T11:10:13.589Z,0.10
2017-12-03T11:12:40.260Z,0.10
2017-12-03T11:15:07.381Z,0.10
2017-12-03T11:17:34.142Z,0.00
2017-12-03T11:20:01.142Z,0.00
2017-12-03T11:22:28.060Z,0.00
2017-12-03T11:24:54.710Z,0.00
2017-12-03T11:27:21.641Z,-0.10
2017-12-03T11:29:48.182Z,-0.10
2017-12-03T11:32:14.890Z,-0.10
2017-12-03T11:34:41.498Z,-0.10
2017-12-03T11:37:08.126Z,-0.10
2017-12-03T11:39:34.897Z,-0.10
2017-12-03T11:42:01.450Z,-0.10
2017-12-03T11:44:28.002Z,-0.20
2017-12-03T11:46:54.605Z,-0.10
2017-12-03T11:49:21.158Z,-0.10
2017-12-03T11:51:47.714Z,-0.10
2017-12-03T11:54:14.311Z,-0.20
2017-12-03T11:56:40.924Z,-0.20
2017-12-03T11:59:07.841Z,-0.20
2017-12-03T12:01:34.518Z,-0.20
2017-12-03T12:04:01.073Z,-0.10
2017-12-03T12:06:27.618Z,-0.10
2017-12-03T12:08:54.263Z,-0.20
2017-12-03T12:11:20.804Z,-0.20
2017-12-03T12:13:47.394Z,-0.10
2017-12-03T12:16:14.371Z,0.00
2017-12-03T12:18:40.906Z,-0.10
2017-12-03T12:21:07.458Z,-0.10
2017-12-03T12:23:34.182Z,-0.10
2017-12-03T12:26:00.783Z,0.00
2017-12-03T12:28:27.333Z,0.10
2017-12-03T12:30:53.921Z,0.00
2017-12-03T12:33:20.475Z,0.00
2017-12-03T12:35:47.962Z,-0.10
2017-12-03T12:38:14.930Z,-0.10
2017-12-03T12:40:41.529Z,-0.10
2017-12-03T12:43:08.134Z,-0.10
2017-12-03T12:45:34.750Z,-0.10
2017-12-03T12:48:01.726Z,-0.10
2017-12-03T12:50:28.406Z,-0.10
2017-12-03T12:52:55.098Z,-0.10
2017-12-03T12:55:21.706Z,-0.10
2017-12-03T12:57:48.398Z,-0.20
2017-12-03T13:00:15.459Z,-0.20
2017-12-03T13:02:42.006Z,-0.20
2017-12-03T13:05:08.917Z,-0.40
2017-12-03T13:07:35.534Z,-0.40
2017-12-03T13:10:02.091Z,-0.40
2017-12-03T13:12:29.184Z,-0.40
2017-12-03T13:14:55.793Z,-0.40
2017-12-03T13:17:22.412Z,-0.40
2017-12-03T13:19:48.955Z,-0.40
2017-12-03T13:22:15.567Z,-0.40
2017-12-03T13:24:42.194Z,-0.40
2017-12-03T13:27:08.735Z,-0.50
2017-12-03T13:29:35.390Z,-0.50
2017-12-03T13:32:01.972Z,-0.50
2017-12-03T13:34:28.526Z,-0.40
2017-12-03T13:36:56.226Z,-0.40
2017-12-03T13:39:23.243Z,-0.50
2017-12-03T13:41:49.802Z,-0.50
2017-12-03T13:44:16.406Z,-0.50
2017-12-03T13:46:42.966Z,-0.50
2017-12-03T13:49:09.518Z,-0.50
2017-12-03T13:51:36.205Z,-0.50
2017-12-03T13:54:02.789Z,-0.60
2017-12-03T13:56:29.711Z,-0.60
2017-12-03T13:58:56.427Z,-0.60
2017-12-03T14:01:23.029Z,-0.60
2017-12-03T14:03:49.642Z,-0.60
2017-12-03T14:06:16.261Z,-0.60
2017-12-03T14:08:42.871Z,-0.50
2017-12-03T14:11:09.791Z,-0.60
2017-12-03T14:13:36.455Z,-0.60
2017-12-03T14:16:03.052Z,-0.70
2017-12-03T14:18:29.675Z,-0.60
2017-12-03T14:20:56.692Z,-0.60
2017-12-03T14:23:23.715Z,-0.60
2017-12-03T14:25:50.298Z,-0.60
2017-12-03T14:28:16.897Z,-0.50
2017-12-03T14:30:43.809Z,-0.60
2017-12-03T14:33:10.356Z,-0.60
2017-12-03T14:35:37.042Z,-0.60
2017-12-03T14:38:04.006Z,-0.60
2017-12-03T14:40:30.928Z,-0.60
2017-12-03T14:42:57.610Z,-0.60
2017-12-03T14:45:25.190Z,-0.60
2017-12-03T14:47:52.158Z,-0.60
2017-12-03T14:50:18.765Z,-0.60
2017-12-03T14:52:45.324Z,-0.60
2017-12-03T14:55:12.239Z,-0.60
2017-12-03T14:57:38.844Z,-0.60
2017-12-03T15:00:05.786Z,-0.70
2017-12-03T15:02:39.409Z,-0.70
2017-12-03T15:05:06.047Z,-0.70
2017-12-03T15:07:33.472Z,-0.70
2017-12-03T15:10:00.086Z,-0.70
2017-12-03T15:12:27.130Z,-0.70
2017-12-03T15:14:54.081Z,-0.70
2017-12-03T15:17:21.105Z,-0.70
2017-12-03T15:19:47.717Z,-0.80
2017-12-03T15:22:14.334Z,-0.70
2017-12-03T15:24:41.466Z,-0.80
2017-12-03T15:27:08.086Z,-0.80
2017-12-03T15:29:34.706Z,-0.80
2017-12-03T15:32:01.755Z,-0.80
2017-12-03T15:34:28.818Z,-0.80
2017-12-03T15:36:55.810Z,-0.80
2017-12-03T15:39:22.623Z,-0.80
2017-12-03T15:41:49.586Z,-0.90
2017-12-03T15:44:16.581Z,-0.90
2017-12-03T15:46:43.247Z,-0.90
2017-12-03T15:49:09.910Z,-0.80
2017-12-03T15:51:36.587Z,-0.90
2017-12-03T15:54:03.674Z,-0.90
2017-12-03T15:56:30.345Z,-0.90
2017-12-03T15:58:56.949Z,-0.90
2017-12-03T16:01:24.019Z,-0.90
2017-12-03T16:03:50.651Z,-0.90
2017-12-03T16:06:17.762Z,-0.90
2017-12-03T16:08:44.407Z,-1.00
2017-12-03T16:11:12.558Z,-0.90
2017-12-03T16:13:39.525Z,-0.90
2017-12-03T16:18:39.372Z,-1.00
2017-12-03T16:21:06.379Z,-1.00
2017-12-03T16:23:33.059Z,-1.00
2017-12-03T16:25:59.606Z,-0.90
2017-12-03T16:28:26.271Z,-1.00
2017-12-03T16:30:52.884Z,-1.00
2017-12-03T16:33:19.482Z,-1.00
2017-12-03T16:35:46.101Z,-1.00
2017-12-03T16:38:12.678Z,-1.00
2017-12-03T16:40:39.281Z,-1.00
2017-12-03T16:43:05.966Z,-1.00
2017-12-03T16:45:32.567Z,-1.00
2017-12-03T16:47:59.193Z,-1.00
2017-12-03T16:50:25.837Z,-1.00
2017-12-03T16:52:53.658Z,-1.10
2017-12-03T16:55:20.622Z,-1.10
2017-12-03T16:57:47.302Z,-1.10
2017-12-03T17:00:14.006Z,-1.20
2017-12-03T17:02:40.606Z,-1.20
2017-12-03T17:05:07.243Z,-1.20
2017-12-03T17:07:34.162Z,-1.40
2017-12-03T17:10:00.702Z,-1.40
2017-12-03T17:12:27.624Z,-1.40
2017-12-03T17:14:54.190Z,-1.50
2017-12-03T17:17:21.041Z,-1.50
2017-12-03T17:19:47.778Z,-1.60
2017-12-03T17:22:14.421Z,-1.60
2017-12-03T17:24:41.010Z,-1.60
2017-12-03T17:27:07.815Z,-1.50
2017-12-03T17:29:34.432Z,-1.50
2017-12-03T17:32:01.065Z,-1.60
2017-12-03T17:34:28.106Z,-1.60
2017-12-03T17:36:54.685Z,-1.60
2017-12-03T17:39:21.240Z,-1.70
2017-12-03T17:41:48.273Z,-1.80
2017-12-03T17:44:14.822Z,-1.80
2017-12-03T17:46:41.382Z,-1.80
2017-12-03T17:49:08.126Z,-1.90
2017-12-03T17:51:34.673Z,-1.80
2017-12-03T17:54:01.215Z,-1.80
2017-12-03T17:56:28.206Z,-1.90
2017-12-03T17:58:55.195Z,-2.00
2017-12-03T18:01:21.793Z,-2.00
2017-12-03T18:03:48.405Z,-2.10
2017-12-03T18:06:14.955Z,-2.00
2017-12-03T18:08:41.510Z,-2.00
2017-12-03T18:11:08.301Z,-2.00
2017-12-03T18:13:35.259Z,-2.10
2017-12-03T18:16:02.185Z,-2.10
2017-12-03T18:18:28.873Z,-2.10
2017-12-03T18:20:55.791Z,-2.10
2017-12-03T18:23:23.445Z,-2.10
2017-12-03T18:25:50.092Z,-2.10
2017-12-03T18:28:17.288Z,-2.10
2017-12-03T18:30:43.853Z,-2.10
2017-12-03T18:33:10.780Z,-2.10
2017-12-03T18:35:37.878Z,-2.20
2017-12-03T18:38:06.252Z,-2.20
2017-12-03T18:40:32.915Z,-2.20
2017-12-03T18:42:59.954Z,-2.20
2017-12-03T18:45:27.937Z,-2.20
2017-12-03T18:47:54.664Z,-2.20
2017-12-03T18:50:21.966Z,-2.20
2017-12-03T18:52:48.950Z,-2.20
2017-12-03T18:55:15.692Z,-2.20
2017-12-03T18:57:42.374Z,-2.20
2017-12-03T19:00:09.055Z,-2.20
2017-12-03T19:02:35.775Z,-2.20
2017-12-03T19:05:02.407Z,-2.30
2017-12-03T19:07:29.003Z,-2.20
2017-12-03T19:09:55.647Z,-2.30
2017-12-03T19:12:22.225Z,-2.30
2017-12-03T19:14:48.801Z,-2.30
2017-12-03T19:17:15.886Z,-2.20
2017-12-03T19:19:42.485Z,-2.20
2017-12-03T19:22:09.406Z,-2.20
2017-12-03T19:24:36.095Z,-2.20
2017-12-03T19:27:02.690Z,-2.20
2017-12-03T19:29:29.290Z,-2.10
2017-12-03T19:31:55.998Z,-2.10
2017-12-03T19:34:22.638Z,-2.10
2017-12-03T19:36:49.198Z,-2.10
2017-12-03T19:39:15.937Z,-2.10
2017-12-03T19:41:43.106Z,-2.20
2017-12-03T19:44:09.685Z,-2.20
2017-12-03T19:46:36.434Z,-2.20
2017-12-03T19:49:03.037Z,-2.20
2017-12-03T19:51:29.674Z,-2.20
2017-12-03T19:53:56.729Z,-2.30
2017-12-03T19:56:23.471Z,-2.20
2017-12-03T19:58:50.360Z,-2.20
2017-12-03T20:01:17.241Z,-2.20
2017-12-03T20:03:43.834Z,-2.20
2017-12-03T20:06:10.914Z,-2.20
2017-12-03T20:08:37.587Z,-2.20
2017-12-03T20:11:04.258Z,-2.20
2017-12-03T20:13:31.663Z,-2.20
2017-12-03T20:15:58.759Z,-2.20
2017-12-03T20:18:25.365Z,-2.20
2017-12-03T20:20:52.002Z,-2.20
2017-12-03T20:23:18.770Z,-2.20
2017-12-03T20:25:45.977Z,-2.10
2017-12-03T20:28:12.691Z,-2.10
2017-12-03T20:30:40.873Z,-2.20
2017-12-03T20:33:07.619Z,-2.20
2017-12-03T20:35:34.839Z,-2.10
2017-12-03T20:38:02.399Z,-2.10
2017-12-03T20:40:30.418Z,-2.10
2017-12-03T20:42:57.209Z,-2.10
2017-12-03T20:45:23.935Z,-2.10
2017-12-03T20:47:51.008Z,-2.10
2017-12-03T20:50:17.786Z,-2.10
2017-12-03T20:52:44.450Z,-2.10
2017-12-03T20:55:11.107Z,-2.10
2017-12-03T20:57:37.710Z,-2.10
2017-12-03T21:00:04.462Z,-2.10
2017-12-03T21:02:31.490Z,-2.00
2017-12-03T21:04:58.106Z,-2.00
2017-12-03T21:07:24.782Z,-2.00
2017-12-03T21:09:51.410Z,-2.00
2017-12-03T21:12:18.026Z,-2.00
2017-12-03T21:14:44.805Z,-2.00
2017-12-03T21:17:11.387Z,-2.00
2017-12-03T21:19:38.003Z,-2.00
2017-12-03T21:22:04.636Z,-2.00
2017-12-03T21:24:31.211Z,-2.00
2017-12-03T21:26:57.799Z,-2.00
2017-12-03T21:29:24.902Z,-2.00
2017-12-03T21:31:51.501Z,-2.00
2017-12-03T21:34:18.090Z,-2.00
2017-12-03T21:36:44.702Z,-2.00
2017-12-03T21:39:11.309Z,-2.00
2017-12-03T21:41:37.870Z,-2.00
2017-12-03T21:44:04.509Z,-2.00
2017-12-03T21:46:31.065Z,-2.00
2017-12-03T21:48:57.619Z,-2.00
2017-12-03T21:51:24.230Z,-2.00
2017-12-03T21:53:50.844Z,-1.90
2017-12-03T21:56:17.403Z,-1.90
2017-12-03T21:58:44.098Z,-1.90
2017-12-03T22:01:10.706Z,-1.90
2017-12-03T22:03:37.282Z,-2.00
2017-12-03T22:06:04.342Z,-1.90
2017-12-03T22:08:31.254Z,-1.90
2017-12-03T22:10:57.793Z,-1.90
2017-12-03T22:13:24.382Z,-1.90
2017-12-03T22:15:51.301Z,-1.90
2017-12-03T22:18:17.919Z,-1.80
2017-12-03T22:20:44.535Z,-1.80
2017-12-03T22:23:11.462Z,-1.80
2017-12-03T22:25:38.005Z,-1.80
2017-12-03T22:28:04.606Z,-1.80
2017-12-03T22:30:31.538Z,-1.70
2017-12-03T22:32:58.090Z,-1.70
2017-12-03T22:35:25.045Z,-1.70
2017-12-03T22:37:51.994Z,-1.80
2017-12-03T22:40:18.546Z,-1.80
2017-12-03T22:42:45.605Z,-1.70
2017-12-03T22:45:12.146Z,-1.80
2017-12-03T22:47:38.694Z,-1.70
2017-12-03T22:50:05.316Z,-1.70
2017-12-03T22:52:31.867Z,-1.70
2017-12-03T22:54:58.437Z,-1.70
2017-12-03T22:57:25.070Z,-1.70
2017-12-03T22:59:53.178Z,-1.70
2017-12-03T23:02:20.262Z,-1.60
2017-12-03T23:04:46.861Z,-1.70
2017-12-03T23:07:13.405Z,-1.60
2017-12-03T23:09:39.946Z,-1.60
2017-12-03T23:12:07.152Z,-1.60
2017-12-03T23:14:33.761Z,-1.60
2017-12-03T23:17:02.307Z,-1.60
2017-12-03T23:19:28.923Z,-1.60
2017-12-03T23:21:55.521Z,-1.60
2017-12-03T23:24:22.114Z,-1.60
2017-12-03T23:26:48.841Z,-1.60
2017-12-03T23:29:15.850Z,-1.60
2017-12-03T23:31:42.438Z,-1.60
2017-12-03T23:34:09.154Z,-1.60
2017-12-03T23:36:35.766Z,-1.60
2017-12-03T23:39:02.438Z,-1.60
2017-12-03T23:41:29.105Z,-1.70
2017-12-03T23:43:55.649Z,-1.60
2017-12-03T23:46:22.361Z,-1.50
2017-12-03T23:48:49.339Z,-1.50
2017-12-03T23:51:15.973Z,-1.50
2017-12-03T23:53:42.612Z,-1.50
2017-12-03T23:56:09.270Z,-1.60
2017-12-03T23:58:35.867Z,-1.60
